Time;durP1;ratioP1;P1;durP2;ratioP2;P2;SDS_P1;SDS_P2;PMS_P1;PMS_P2;Temp;Humidity;BMP_temperature;BMP_pressure;BME280_temperature;BME280_humidity;BME280_pressure;Samples;Min_cycle;Max_cycle;Signal;HPM_P1;HPM_P2
2022/04/01 00:00:18;;;;;;;8.80;2.60;;;;;;;1.77;37.71;98805.81;4191336;28;22107;-61
2022/04/01 00:02:44;;;;;;;5.43;1.70;;;;;;;1.72;37.53;98810.59;4187790;28;20272;-64
2022/04/01 00:05:11;;;;;;;7.40;2.13;;;;;;;1.74;37.98;98803.44;4193897;28;20235;-63
2022/04/01 00:07:41;;;;;;;6.83;2.20;;;;;;;1.75;37.87;98805.91;4195548;28;20256;-61
2022/04/01 00:10:08;;;;;;;6.93;2.03;;;;;;;1.79;37.94;98801.25;4174826;28;20237;-64
2022/04/01 00:12:41;;;;;;;6.27;1.97;;;;;;;1.77;38.21;98801.38;4189139;28;20984;-62
2022/04/01 00:15:09;;;;;;;3.57;1.70;;;;;;;1.78;37.85;98792.56;4179740;28;23635;-62
2022/04/01 00:17:35;;;;;;;6.37;2.00;;;;;;;1.72;37.96;98805.38;4182903;28;25620;-64
2022/04/01 00:20:03;;;;;;;4.63;1.90;;;;;;;1.75;38.55;98805.91;4200475;28;20302;-62
2022/04/01 00:22:29;;;;;;;6.10;1.93;;;;;;;1.72;38.21;98798.31;4192000;28;21174;-62
2022/04/01 00:24:56;;;;;;;4.73;1.93;;;;;;;1.71;38.30;98793.19;4207128;28;21081;-61
2022/04/01 00:27:23;;;;;;;4.53;1.90;;;;;;;1.64;38.51;98772.75;4204666;28;20240;-62
2022/04/01 00:29:50;;;;;;;4.73;1.50;;;;;;;1.61;38.52;98785.28;4189694;28;20252;-63
2022/04/01 00:32:16;;;;;;;6.53;1.60;;;;;;;1.63;38.58;98784.19;4187997;28;21416;-63
2022/04/01 00:34:45;;;;;;;3.67;1.80;;;;;;;1.59;38.90;98774.09;4207258;28;21055;-62
2022/04/01 00:37:12;;;;;;;4.03;1.60;;;;;;;1.60;38.57;98767.91;4195431;28;22497;-61
2022/04/01 00:39:38;;;;;;;2.63;1.60;;;;;;;1.58;38.41;98768.00;4173628;28;20340;-62
2022/04/01 00:42:05;;;;;;;5.57;1.77;;;;;;;1.59;38.46;98768.84;4199947;28;20366;-62
2022/04/01 00:44:34;;;;;;;3.50;1.60;;;;;;;1.58;38.94;98760.16;4205377;28;20315;-62
2022/04/01 00:47:03;;;;;;;6.00;1.90;;;;;;;1.62;38.99;98772.06;4191746;28;20232;-61
2022/04/01 00:49:31;;;;;;;4.53;1.80;;;;;;;1.59;38.53;98774.94;4193552;28;20322;-63
2022/04/01 00:52:00;;;;;;;4.10;1.77;;;;;;;1.53;38.59;98772.00;4193120;28;20236;-61
2022/04/01 00:54:27;;;;;;;9.57;2.03;;;;;;;1.56;38.63;98774.34;4182960;28;20254;-64
2022/04/01 00:56:54;;;;;;;11.03;1.83;;;;;;;1.53;38.60;98769.38;4195309;28;20237;-62
2022/04/01 00:59:22;;;;;;;8.23;1.90;;;;;;;1.50;38.69;98769.63;4188689;28;20259;-60
2022/04/01 01:01:49;;;;;;;5.17;2.00;;;;;;;1.53;38.36;98764.97;4193957;28;20240;-64
2022/04/01 01:04:17;;;;;;;4.77;1.80;;;;;;;1.54;38.29;98765.78;4207438;28;20236;-62
2022/04/01 01:06:46;;;;;;;5.53;1.83;;;;;;;1.45;38.41;98763.00;4206519;28;20237;-62
2022/04/01 01:09:14;;;;;;;6.60;1.97;;;;;;;1.42;38.48;98768.47;4187305;28;20244;-61
2022/04/01 01:11:42;;;;;;;5.37;2.10;;;;;;;1.39;38.57;98762.66;4192787;28;20232;-60
2022/04/01 01:14:10;;;;;;;3.80;1.70;;;;;;;1.47;38.47;98755.84;4207554;28;20236;-61
2022/04/01 01:16:40;;;;;;;4.47;2.00;;;;;;;1.47;38.55;98757.59;4191260;28;20236;-61
2022/04/01 01:19:10;;;;;;;7.07;1.80;;;;;;;1.52;38.41;98752.78;4187064;28;21258;-60
2022/04/01 01:21:38;;;;;;;5.00;1.30;;;;;;;1.46;38.41;98753.31;4198788;28;20304;-61
2022/04/01 01:24:07;;;;;;;4.07;1.90;;;;;;;1.38;38.90;98756.59;4195727;28;20239;-61
2022/04/01 01:26:35;;;;;;;2.67;1.80;;;;;;;1.41;38.58;98745.84;4194755;28;20228;-61
2022/04/01 01:29:03;;;;;;;6.40;2.00;;;;;;;1.39;38.94;98746.94;4195835;28;20631;-61
2022/04/01 01:31:30;;;;;;;9.20;2.00;;;;;;;1.36;39.06;98736.69;4177380;28;20390;-63
2022/04/01 01:33:58;;;;;;;3.27;1.60;;;;;;;1.33;39.10;98740.41;4190963;28;20240;-63
2022/04/01 01:36:31;;;;;;;3.20;1.60;;;;;;;1.27;39.52;98733.91;4191145;28;20232;-61
2022/04/01 01:38:57;;;;;;;6.13;1.77;;;;;;;1.26;39.46;98747.97;4182093;28;20324;-64
2022/04/01 01:41:25;;;;;;;6.80;1.70;;;;;;;1.24;39.78;98742.03;4189993;28;22818;-61
2022/04/01 01:43:53;;;;;;;4.47;1.60;;;;;;;1.25;40.13;98741.06;4202652;28;20674;-62
2022/04/01 01:46:19;;;;;;;4.17;1.60;;;;;;;1.29;40.13;98746.03;4190988;28;20415;-63
2022/04/01 01:48:46;;;;;;;4.83;2.03;;;;;;;1.23;40.68;98739.53;4203597;28;20228;-61
2022/04/01 01:56:44;;;;;;;5.73;1.60;;;;;;;1.17;40.91;98722.53;4188269;28;20342;-63
2022/04/01 01:59:11;;;;;;;3.53;1.90;;;;;;;1.10;41.06;98726.63;4186929;28;22458;-61
2022/04/01 02:01:39;;;;;;;3.30;1.73;;;;;;;1.10;41.83;98716.16;4192007;28;20233;-61
2022/04/01 02:04:06;;;;;;;3.60;1.50;;;;;;;1.08;41.11;98717.19;4192054;28;21206;-64
2022/04/01 02:06:33;;;;;;;5.03;1.67;;;;;;;1.08;41.71;98727.69;4191365;28;20284;-70
2022/04/01 02:08:59;;;;;;;6.20;2.05;;;;;;;1.10;42.42;98726.63;4184708;28;20445;-62
2022/04/01 02:11:26;;;;;;;3.53;1.63;;;;;;;1.05;41.90;98723.53;4174442;28;20306;-64
2022/04/01 02:13:53;;;;;;;4.37;1.90;;;;;;;1.00;41.58;98715.22;4179698;28;20669;-65
2022/04/01 02:16:21;;;;;;;7.33;1.60;;;;;;;1.06;41.63;98704.25;4193172;28;20298;-64
2022/04/01 02:18:49;;;;;;;7.50;1.80;;;;;;;1.00;41.32;98710.00;4190968;28;20290;-61
2022/04/01 02:21:16;;;;;;;5.50;1.80;;;;;;;0.97;42.48;98699.78;4192186;28;20308;-62
2022/04/01 02:23:46;;;;;;;7.43;1.83;;;;;;;0.93;42.53;98700.97;4192364;28;21194;-62
2022/04/01 02:26:13;;;;;;;3.73;1.70;;;;;;;0.90;42.82;98698.63;4190595;28;20240;-61
2022/04/01 02:28:41;;;;;;;9.20;2.10;;;;;;;0.84;42.63;98699.94;4196515;28;20237;-63
2022/04/01 02:31:08;;;;;;;6.53;1.67;;;;;;;0.87;42.81;98704.09;4196403;28;20654;-64
2022/04/01 02:33:35;;;;;;;8.83;2.07;;;;;;;0.88;42.56;98700.53;4193752;28;20300;-62
2022/04/01 02:36:10;;;;;;;4.93;1.93;;;;;;;0.89;42.64;98696.94;4190453;28;20240;-64
2022/04/01 02:38:39;;;;;;;3.97;1.50;;;;;;;0.83;42.55;98687.81;4191986;28;20243;-63
2022/04/01 02:41:08;;;;;;;5.43;1.90;;;;;;;0.79;43.21;98684.59;4189918;28;22778;-62
2022/04/01 02:43:35;;;;;;;3.73;1.63;;;;;;;0.77;43.43;98681.31;4179015;28;21722;-62
2022/04/01 02:46:03;;;;;;;5.97;1.73;;;;;;;0.76;43.14;98678.81;4188360;28;23213;-64
2022/04/01 02:48:30;;;;;;;5.43;2.00;;;;;;;0.78;43.55;98680.34;4206148;28;20384;-61
2022/04/01 02:50:57;;;;;;;6.90;1.73;;;;;;;0.75;44.54;98683.22;4189672;28;21285;-63
2022/04/01 02:53:23;;;;;;;8.10;2.10;;;;;;;0.71;44.62;98675.75;4188435;28;20261;-64
2022/04/01 02:55:50;;;;;;;3.70;1.60;;;;;;;0.72;44.70;98674.78;4189207;28;20330;-64
2022/04/01 02:58:16;;;;;;;5.90;1.87;;;;;;;0.76;44.25;98671.78;4193053;28;20330;-62
2022/04/01 03:00:43;;;;;;;3.20;1.80;;;;;;;0.66;45.19;98660.41;4193026;28;20233;-64
2022/04/01 03:03:10;;;;;;;5.67;1.60;;;;;;;0.65;44.54;98668.38;4176167;28;21287;-61
2022/04/01 03:05:39;;;;;;;5.63;2.10;;;;;;;0.63;45.54;98666.72;4192954;28;20793;-62
2022/04/01 03:08:07;;;;;;;8.07;2.07;;;;;;;0.60;46.17;98661.72;4192631;28;22969;-62
2022/04/01 03:10:36;;;;;;;9.00;2.23;;;;;;;0.58;45.83;98660.19;4193036;28;21791;-62
2022/04/01 03:13:03;;;;;;;3.50;1.60;;;;;;;0.61;45.79;98662.59;4190242;28;20295;-61
2022/04/01 03:15:30;;;;;;;4.40;2.00;;;;;;;0.66;46.06;98665.66;4180115;28;20392;-63
2022/04/01 03:17:58;;;;;;;5.03;2.00;;;;;;;0.62;46.05;98645.91;4191196;28;20444;-61
2022/04/01 03:20:29;;;;;;;5.33;1.70;;;;;;;0.62;46.83;98654.59;4189104;28;22107;-63
2022/04/01 03:22:57;;;;;;;5.93;1.80;;;;;;;0.58;46.60;98653.16;4193299;28;20335;-62
2022/04/01 03:25:24;;;;;;;6.30;1.60;;;;;;;0.56;47.21;98654.25;4188697;28;20292;-62
2022/04/01 03:27:50;;;;;;;4.33;1.83;;;;;;;0.56;46.92;98662.09;4191627;28;20441;-61
2022/04/01 03:30:17;;;;;;;3.33;1.73;;;;;;;0.47;47.12;98647.16;4192201;28;20307;-59
2022/04/01 03:32:47;;;;;;;7.33;1.57;;;;;;;0.45;48.30;98641.25;4171054;28;20270;-62
2022/04/01 03:35:17;;;;;;;7.10;1.70;;;;;;;0.39;48.75;98650.41;4190658;28;20240;-61
2022/04/01 03:37:45;;;;;;;6.87;1.63;;;;;;;0.37;48.43;98647.91;4167489;28;23372;-63
2022/04/01 03:40:15;;;;;;;5.27;1.87;;;;;;;0.42;48.84;98647.53;4188345;28;23086;-61
2022/04/01 03:42:46;;;;;;;3.70;1.70;;;;;;;0.40;49.09;98645.06;4193492;28;20229;-61
2022/04/01 03:45:14;;;;;;;4.37;1.73;;;;;;;0.40;49.40;98633.75;4181602;28;20229;-64
2022/04/01 03:47:40;;;;;;;3.87;1.67;;;;;;;0.34;49.47;98639.47;4189539;28;20238;-61
2022/04/01 03:50:10;;;;;;;5.70;1.50;;;;;;;0.27;49.75;98633.91;4212848;28;23656;-62
2022/04/01 03:52:38;;;;;;;10.23;1.40;;;;;;;0.24;49.88;98652.47;4189304;28;20842;-60
2022/04/01 03:55:09;;;;;;;7.20;1.70;;;;;;;0.33;49.88;98651.75;4188398;28;20244;-61
2022/04/01 03:57:40;;;;;;;8.20;1.80;;;;;;;0.34;50.08;98642.09;4208122;28;20337;-62
2022/04/01 04:00:12;;;;;;;7.07;1.70;;;;;;;0.25;50.11;98645.47;4189330;28;21251;-62
2022/04/01 04:02:41;;;;;;;6.10;1.90;;;;;;;0.22;50.49;98657.00;4205099;28;23507;-61
2022/04/01 04:05:09;;;;;;;10.80;1.80;;;;;;;0.21;51.31;98655.31;4190968;28;20538;-62
2022/04/01 04:07:36;;;;;;;4.30;1.70;;;;;;;0.13;51.12;98652.50;4198093;28;21202;-64
2022/04/01 04:10:07;;;;;;;7.23;1.63;;;;;;;0.23;50.95;98653.41;4191807;28;23443;-64
2022/04/01 04:12:35;;;;;;;2.93;1.47;;;;;;;0.25;50.21;98655.91;4198092;28;20241;-65
2022/04/01 04:15:03;;;;;;;5.83;1.60;;;;;;;0.26;50.13;98653.19;4190577;28;22386;-62
2022/04/01 04:17:36;;;;;;;7.57;2.00;;;;;;;0.18;50.95;98659.00;4204380;28;20286;-61
2022/04/01 04:20:19;;;;;;;4.37;1.73;;;;;;;0.16;51.55;98658.34;4186512;28;20365;-62
2022/04/01 04:23:06;;;;;;;5.73;1.77;;;;;;;0.07;51.37;98659.06;4177884;28;23399;-63
2022/04/01 04:25:38;;;;;;;4.60;1.77;;;;;;;0.09;51.73;98662.38;4176897;28;20696;-61
2022/04/01 04:28:12;;;;;;;11.80;2.10;;;;;;;0.10;52.01;98663.22;4187702;28;21332;-60
2022/04/01 04:30:49;;;;;;;6.40;1.70;;;;;;;0.09;52.15;98651.91;4186571;28;21911;-63
2022/04/01 04:33:17;;;;;;;6.73;2.20;;;;;;;0.13;51.60;98652.50;4195221;28;21209;-61
2022/04/01 04:35:48;;;;;;;8.37;1.70;;;;;;;0.10;51.83;98653.59;4197583;28;20243;-63
2022/04/01 04:38:16;;;;;;;5.70;1.77;;;;;;;-0.04;52.50;98652.06;4196605;28;20319;-62
2022/04/01 04:40:43;;;;;;;6.27;1.90;;;;;;;-0.12;53.05;98651.81;4185449;28;20232;-64
2022/04/01 04:43:12;;;;;;;5.83;1.80;;;;;;;-0.08;53.84;98644.59;4170250;28;20233;-60
2022/04/01 04:45:39;;;;;;;7.57;1.90;;;;;;;-0.18;54.06;98644.50;4195437;28;20458;-62
2022/04/01 04:48:06;;;;;;;4.70;1.43;;;;;;;-0.22;54.43;98648.28;4181976;28;21780;-61
2022/04/01 04:50:33;;;;;;;12.57;1.77;;;;;;;-0.17;53.78;98650.53;4198620;28;20674;-63
2022/04/01 04:53:01;;;;;;;3.37;1.70;;;;;;;-0.16;53.92;98647.81;4195394;28;20297;-62
2022/04/01 04:55:27;;;;;;;11.13;2.13;;;;;;;-0.16;53.37;98652.22;4193728;28;22117;-61
2022/04/01 04:57:54;;;;;;;6.03;1.80;;;;;;;-0.25;54.36;98653.78;4187948;28;21678;-62
2022/04/01 05:00:21;;;;;;;10.93;2.07;;;;;;;-0.22;54.57;98671.81;4191150;28;22270;-62
2022/04/01 05:02:51;;;;;;;7.73;1.90;;;;;;;-0.19;54.83;98653.25;4199985;28;20245;-61
2022/04/01 05:05:25;;;;;;;8.60;2.00;;;;;;;-0.24;55.60;98671.09;4196384;28;21226;-63
2022/04/01 05:08:32;;;;;;;8.80;2.00;;;;;;;-0.18;55.03;98654.94;4176172;28;20681;-63
2022/04/01 05:11:25;;;;;;;7.47;1.70;;;;;;;-0.41;56.95;98676.81;4190680;28;23461;-63
2022/04/01 05:14:06;;;;;;;7.57;2.03;;;;;;;-0.44;56.83;98655.19;4210382;28;20243;-63
2022/04/01 05:16:53;;;;;;;17.90;2.00;;;;;;;-0.39;57.56;98661.84;4199028;28;23048;-64
2022/04/01 05:19:26;;;;;;;8.03;2.20;;;;;;;-0.49;59.19;98646.06;4188128;28;20275;-63
2022/04/01 05:22:07;;;;;;;9.07;2.43;;;;;;;-0.57;60.29;98671.94;4194435;28;20574;-71
2022/04/01 05:24:44;;;;;;;5.07;1.70;;;;;;;-0.26;59.99;98662.53;4197098;28;20233;-60
2022/04/01 05:27:16;;;;;;;5.10;1.93;;;;;;;-0.35;58.88;98669.34;4202305;28;20247;-63
2022/04/01 05:29:43;;;;;;;7.40;2.37;;;;;;;-0.52;59.86;98652.34;4200056;28;22203;-64
2022/04/01 05:32:10;;;;;;;8.23;1.80;;;;;;;-0.57;60.28;98654.47;4192591;28;22145;-63
2022/04/01 05:34:43;;;;;;;6.83;2.13;;;;;;;-0.66;62.87;98647.34;4207917;28;20261;-64
2022/04/01 05:37:11;;;;;;;13.73;2.27;;;;;;;-0.69;63.49;98663.25;4183191;28;20248;-64
2022/04/01 05:39:39;;;;;;;7.27;2.13;;;;;;;-0.74;65.25;98666.22;4190729;28;20299;-64
2022/04/01 05:42:09;;;;;;;10.17;2.13;;;;;;;-0.76;66.60;98675.13;4196166;28;20240;-61
2022/04/01 05:44:37;;;;;;;4.73;2.17;;;;;;;-0.88;67.25;98671.66;4197512;28;22090;-63
2022/04/01 05:47:04;;;;;;;6.87;2.00;;;;;;;-1.00;68.13;98668.22;4171085;28;20917;-61
2022/04/01 05:49:30;;;;;;;8.70;2.23;;;;;;;-1.01;67.92;98660.47;4210282;28;20285;-61
2022/04/01 05:51:58;;;;;;;9.73;2.17;;;;;;;-1.11;68.82;98669.00;4188856;28;20241;-64
2022/04/01 05:54:27;;;;;;;10.70;2.17;;;;;;;-1.09;68.82;98663.69;4190366;28;20296;-62
2022/04/01 05:56:54;;;;;;;8.63;1.83;;;;;;;-1.02;67.84;98664.88;4196735;28;21922;-64
2022/04/01 05:59:22;;;;;;;12.73;2.10;;;;;;;-0.96;68.83;98659.22;4219481;28;20305;-61
2022/04/01 06:01:53;;;;;;;7.37;2.23;;;;;;;-0.89;66.06;98673.47;4217865;28;20268;-66
2022/04/01 06:04:41;;;;;;;6.87;1.90;;;;;;;-0.79;66.34;98665.75;4186724;28;20284;-64
2022/04/01 06:07:40;;;;;;;12.60;2.57;;;;;;;-0.75;66.11;98661.97;4182236;28;20231;-66
2022/04/01 06:10:11;;;;;;;14.33;2.90;;;;;;;-0.70;66.49;98659.84;4207087;28;20232;-70
2022/04/01 06:13:03;;;;;;;9.53;1.93;;;;;;;-0.64;65.59;98663.75;4216819;28;20239;-71
2022/04/01 06:15:36;;;;;;;6.67;2.00;;;;;;;-0.64;65.54;98663.75;4194938;28;20673;-63
2022/04/01 06:18:18;;;;;;;9.67;2.47;;;;;;;-0.52;64.81;98662.78;4176786;28;20311;-66
2022/04/01 06:20:47;;;;;;;5.10;2.03;;;;;;;-0.39;62.23;98667.09;4200002;28;25370;-66
2022/04/01 06:23:37;;;;;;;6.93;1.90;;;;;;;-0.33;61.48;98663.97;4196452;28;20236;-65
2022/04/01 06:26:11;;;;;;;7.37;2.47;;;;;;;-0.23;61.26;98668.38;4171598;28;20762;-66
2022/04/01 06:28:48;;;;;;;8.17;2.10;;;;;;;-0.17;59.95;98672.28;4158743;28;21002;-68
2022/04/01 06:31:17;;;;;;;13.77;2.47;;;;;;;-0.10;59.90;98667.41;4189812;28;20488;-69
2022/04/01 06:34:04;;;;;;;7.97;2.03;;;;;;;-0.03;57.92;98658.94;4188382;28;20236;-65
2022/04/01 06:36:45;;;;;;;6.13;2.03;;;;;;;0.04;58.20;98664.53;4178579;28;20279;-67
2022/04/01 06:39:15;;;;;;;8.93;1.80;;;;;;;0.04;56.32;98669.75;4203122;28;20302;-65
2022/04/01 06:41:46;;;;;;;11.37;2.27;;;;;;;0.05;57.16;98660.97;4176826;28;21036;-67
2022/04/01 06:44:13;;;;;;;14.40;2.03;;;;;;;-0.09;58.60;98662.06;4193156;28;20244;-66
2022/04/01 06:46:39;;;;;;;8.00;1.97;;;;;;;-0.13;58.75;98658.03;4196792;28;22034;-63
2022/04/01 06:49:08;;;;;;;8.53;2.00;;;;;;;-0.13;59.45;98665.03;4168962;28;20229;-64
2022/04/01 06:51:36;;;;;;;12.80;2.00;;;;;;;-0.18;60.33;98668.00;4196039;28;20236;-71
2022/04/01 06:54:03;;;;;;;6.37;1.80;;;;;;;-0.18;59.77;98665.41;4186072;28;26348;-65
2022/04/01 06:56:29;;;;;;;8.27;1.90;;;;;;;-0.17;59.76;98661.81;4204253;28;20233;-66
2022/04/01 06:58:56;;;;;;;6.93;2.30;;;;;;;-0.18;59.66;98667.19;4178772;28;20233;-69
2022/04/01 07:01:23;;;;;;;6.00;2.20;;;;;;;-0.14;60.57;98658.13;4189447;28;20327;-65
2022/04/01 07:03:49;;;;;;;7.47;1.90;;;;;;;-0.16;60.41;98642.59;4203946;28;22488;-70
2022/04/01 07:06:17;;;;;;;11.30;2.03;;;;;;;-0.19;59.99;98653.25;4167249;28;20240;-70
2022/04/01 07:08:44;;;;;;;5.63;2.10;;;;;;;-0.22;59.82;98669.19;4189674;28;20236;-66
2022/04/01 07:11:11;;;;;;;5.87;2.27;;;;;;;-0.20;59.79;98663.88;4195830;28;20415;-66
2022/04/01 07:13:38;;;;;;;3.90;1.60;;;;;;;-0.08;58.27;98655.88;4199640;28;20385;-66
2022/04/01 07:16:06;;;;;;;8.37;1.73;;;;;;;-0.04;58.19;98659.09;4189765;28;20241;-67
2022/04/01 07:18:34;;;;;;;4.47;1.83;;;;;;;0.07;58.13;98669.53;4207543;28;20233;-70
2022/04/01 07:21:00;;;;;;;7.57;2.27;;;;;;;0.18;57.40;98661.63;4176683;28;20302;-70
2022/04/01 07:23:28;;;;;;;9.20;2.00;;;;;;;0.10;58.13;98664.03;4185285;28;20690;-70
2022/04/01 07:25:55;;;;;;;8.73;2.10;;;;;;;0.17;58.18;98659.16;4194132;28;20975;-70
2022/04/01 07:28:22;;;;;;;16.40;2.33;;;;;;;0.05;59.21;98670.56;4191869;28;22953;-68
2022/04/01 07:30:48;;;;;;;14.93;2.60;;;;;;;0.26;60.00;98662.81;4206877;28;20245;-59
2022/04/01 07:33:15;;;;;;;11.07;2.53;;;;;;;0.26;60.00;98663.66;4191620;28;20299;-50
2022/04/01 07:35:44;;;;;;;11.93;2.30;;;;;;;0.22;59.03;98666.63;4281294;28;20291;-71
2022/04/01 07:38:11;;;;;;;5.50;2.10;;;;;;;0.10;60.55;98665.84;4216708;28;26645;-71
2022/04/01 07:40:38;;;;;;;11.50;2.50;;;;;;;0.04;61.38;98654.06;4206741;28;20337;-69
2022/04/01 07:43:04;;;;;;;8.70;2.20;;;;;;;0.06;61.88;98656.56;4228077;28;21565;-72
2022/04/01 07:45:33;;;;;;;21.27;2.30;;;;;;;-0.07;63.24;98643.63;4224671;28;23285;-71
2022/04/01 07:48:00;;;;;;;10.03;2.10;;;;;;;-0.11;62.93;98661.34;4183849;28;20242;-67
2022/04/01 07:50:27;;;;;;;9.37;2.17;;;;;;;-0.07;62.81;98661.91;4181867;28;24960;-68
2022/04/01 07:52:56;;;;;;;6.23;2.00;;;;;;;0.03;62.94;98668.09;4184871;28;22074;-75
2022/04/01 07:55:23;;;;;;;6.03;2.10;;;;;;;-0.08;64.02;98666.31;4201374;28;20311;-70
2022/04/01 07:57:50;;;;;;;9.17;2.43;;;;;;;-0.24;67.31;98651.00;4224155;28;20259;-68
2022/04/01 08:00:37;;;;;;;6.70;2.40;;;;;;;-0.30;69.36;98666.38;4177848;28;20394;-65
2022/04/01 08:03:03;;;;;;;6.93;2.53;;;;;;;-0.31;69.95;98667.31;4185597;28;21758;-67
2022/04/01 08:05:30;;;;;;;11.00;2.60;;;;;;;-0.24;69.10;98658.03;4205948;28;20239;-67
2022/04/01 08:07:57;;;;;;;6.97;2.73;;;;;;;-0.16;67.77;98663.50;4197584;28;20531;-69
2022/04/01 08:10:23;;;;;;;11.47;2.50;;;;;;;-0.06;68.14;98658.38;4217522;28;20334;-67
2022/04/01 08:12:50;;;;;;;7.57;2.13;;;;;;;-0.20;67.18;98663.88;4243758;28;20283;-65
2022/04/01 08:15:18;;;;;;;6.73;2.43;;;;;;;-0.26;68.92;98665.16;4215397;28;20924;-67
2022/04/01 08:17:44;;;;;;;9.40;2.60;;;;;;;-0.28;69.69;98659.22;4198028;28;20461;-68
2022/04/01 08:20:12;;;;;;;7.90;2.43;;;;;;;-0.39;70.55;98667.09;4205440;28;20238;-70
2022/04/01 08:22:40;;;;;;;11.43;2.67;;;;;;;-0.37;72.28;98659.97;4245909;28;22088;-69
2022/04/01 08:25:07;;;;;;;10.17;2.90;;;;;;;-0.34;73.01;98663.16;4204002;28;20236;-70
2022/04/01 08:27:34;;;;;;;15.13;2.83;;;;;;;-0.40;72.75;98660.19;4228143;28;20267;-69
2022/04/01 08:30:01;;;;;;;8.20;2.90;;;;;;;-0.43;72.94;98664.69;4208134;28;22637;-68
2022/04/01 08:32:32;;;;;;;13.40;2.40;;;;;;;-0.40;73.18;98671.44;4199100;28;20352;-68
2022/04/01 08:34:59;;;;;;;5.93;2.47;;;;;;;-0.27;72.83;98661.72;4212956;28;20339;-71
2022/04/01 08:37:26;;;;;;;7.80;2.60;;;;;;;-0.17;72.50;98656.59;4196639;28;20304;-68
2022/04/01 08:39:53;;;;;;;7.83;2.80;;;;;;;-0.25;72.01;98653.78;4180246;28;20701;-67
2022/04/01 08:42:21;;;;;;;11.17;2.60;;;;;;;-0.20;72.12;98667.31;4191683;28;20639;-69
2022/04/01 08:44:50;;;;;;;6.77;2.60;;;;;;;-0.16;72.63;98668.72;4196813;28;20322;-69
2022/04/01 08:47:18;;;;;;;12.93;3.00;;;;;;;-0.24;72.66;98679.75;4195229;28;20305;-68
2022/04/01 08:49:45;;;;;;;11.80;2.70;;;;;;;-0.25;73.23;98674.69;4206364;28;21535;-70
2022/04/01 08:52:12;;;;;;;8.87;2.10;;;;;;;-0.18;73.76;98685.50;4193608;28;20657;-70
2022/04/01 08:54:39;;;;;;;6.13;3.10;;;;;;;-0.19;75.66;98671.56;4216241;28;20234;-71
2022/04/01 08:57:06;;;;;;;5.33;3.00;;;;;;;-0.19;76.07;98684.63;4178007;28;20233;-68
2022/04/01 08:59:33;;;;;;;15.03;2.73;;;;;;;-0.47;77.81;98675.50;4196179;28;20233;-69
2022/04/01 09:02:08;;;;;;;15.47;3.20;;;;;;;-0.63;79.66;98681.09;4204552;28;20232;-70
2022/04/01 09:04:36;;;;;;;12.17;2.80;;;;;;;-0.70;81.25;98682.50;4201465;28;20228;-68
2022/04/01 09:07:14;;;;;;;9.00;3.47;;;;;;;-0.65;82.29;98680.38;4206880;28;20519;-66
2022/04/01 09:09:42;;;;;;;8.63;3.20;;;;;;;-0.56;82.66;98678.81;4204493;28;20236;-73
2022/04/01 09:12:13;;;;;;;9.70;3.03;;;;;;;-0.53;83.31;98676.00;4194344;28;20373;-55
2022/04/01 09:14:42;;;;;;;8.23;2.53;;;;;;;-0.51;81.87;98669.69;4183244;28;23455;-68
2022/04/01 09:17:10;;;;;;;12.93;2.93;;;;;;;-0.54;81.93;98664.72;4178338;28;20676;-64
2022/04/01 09:19:45;;;;;;;8.40;3.10;;;;;;;-0.66;82.22;98670.84;4198339;28;21598;-68
2022/04/01 09:22:16;;;;;;;8.47;3.10;;;;;;;-0.64;84.20;98679.41;4202827;28;20295;-66
2022/04/01 09:24:53;;;;;;;12.57;3.40;;;;;;;-0.79;83.45;98670.97;4192076;28;21639;-66
2022/04/01 09:27:55;;;;;;;10.90;3.10;;;;;;;-0.80;85.01;98671.09;4189944;28;21275;-64
2022/04/01 09:30:30;;;;;;;7.03;3.30;;;;;;;-0.86;85.70;98678.44;4212858;28;22481;-67
2022/04/01 09:32:58;;;;;;;9.27;3.73;;;;;;;-0.81;86.24;98677.28;4194572;28;22114;-68
2022/04/01 09:35:27;;;;;;;11.17;3.20;;;;;;;-0.77;86.44;98670.84;4201419;28;20378;-65
2022/04/01 09:38:01;;;;;;;13.47;4.17;;;;;;;-0.64;86.38;98668.97;4193251;28;20252;-64
2022/04/01 09:40:35;;;;;;;8.93;3.50;;;;;;;-0.70;85.56;98667.66;4189501;28;20229;-67
2022/04/01 09:43:07;;;;;;;9.67;2.73;;;;;;;-0.78;85.51;98663.97;4210190;28;20731;-70
2022/04/01 09:45:37;;;;;;;7.40;3.10;;;;;;;-0.81;85.78;98659.81;4200966;28;20240;-72
2022/04/01 09:48:10;;;;;;;7.50;3.07;;;;;;;-0.77;85.55;98671.69;4194893;28;20251;-69
2022/04/01 09:50:39;;;;;;;7.60;2.70;;;;;;;-0.74;86.20;98668.00;4218844;28;22848;-65
2022/04/01 09:53:10;;;;;;;11.50;3.37;;;;;;;-0.79;86.51;98651.88;4199646;28;20515;-69
2022/04/01 09:55:38;;;;;;;14.97;3.63;;;;;;;-0.77;86.79;98665.63;4197738;28;20232;-67
2022/04/01 09:58:06;;;;;;;11.10;3.17;;;;;;;-0.89;86.65;98667.38;4201848;28;20233;-71
2022/04/01 10:00:34;;;;;;;8.60;3.03;;;;;;;-0.88;87.22;98676.91;4194965;28;23229;-70
2022/04/01 10:03:00;;;;;;;11.70;3.30;;;;;;;-0.96;88.27;98672.25;4192721;28;20696;-70
2022/04/01 10:05:27;;;;;;;7.37;3.40;;;;;;;-0.86;88.99;98665.38;4195276;28;20236;-78
2022/04/01 10:07:56;;;;;;;6.63;2.97;;;;;;;-0.70;88.89;98667.66;4196463;28;20345;-69
2022/04/01 10:10:27;;;;;;;14.03;3.57;;;;;;;-0.62;89.01;98661.84;4198671;28;20750;-68
2022/04/01 10:12:59;;;;;;;14.47;3.63;;;;;;;-0.62;89.23;98661.03;4194564;28;26593;-72
2022/04/01 10:15:28;;;;;;;12.57;3.53;;;;;;;-0.71;89.30;98667.78;4187787;28;21258;-67
2022/04/01 10:17:57;;;;;;;8.53;3.83;;;;;;;-0.86;90.25;98654.94;4170758;28;20274;-66
2022/04/01 10:20:33;;;;;;;10.33;3.80;;;;;;;-0.97;90.91;98657.53;4192564;28;20301;-66
2022/04/01 10:23:08;;;;;;;11.20;3.90;;;;;;;-0.96;92.34;98667.03;4190156;28;23715;-66
2022/04/01 10:25:57;;;;;;;11.83;3.90;;;;;;;-0.99;93.47;98656.81;4196490;28;21818;-66
2022/04/01 10:28:25;;;;;;;8.60;3.80;;;;;;;-0.91;94.85;98667.50;4197214;28;20298;-68
2022/04/01 10:30:53;;;;;;;8.93;3.93;;;;;;;-0.84;95.17;98665.28;4179683;28;21660;-68
2022/04/01 10:33:25;;;;;;;16.97;4.50;;;;;;;-0.90;94.39;98668.34;4194747;28;20939;-68
2022/04/01 10:35:54;;;;;;;12.93;3.93;;;;;;;-0.77;95.00;98663.84;4189615;28;20229;-69
2022/04/01 10:38:26;;;;;;;8.03;4.10;;;;;;;-0.86;94.08;98659.34;4200078;28;20525;-74
2022/04/01 10:41:07;;;;;;;14.40;4.00;;;;;;;-0.86;93.31;98661.94;4206807;28;20225;-68
2022/04/01 10:43:38;;;;;;;13.87;3.17;;;;;;;-0.88;92.99;98669.88;4198390;28;20249;-67
2022/04/01 10:46:08;;;;;;;14.77;4.50;;;;;;;-0.80;93.28;98660.63;4200152;28;20332;-70
2022/04/01 10:51:38;;;;;;;15.60;4.60;;;;;;;-0.79;93.50;98657.09;4184771;28;20313;-69
2022/04/01 10:54:12;;;;;;;10.40;3.83;;;;;;;-0.80;93.40;98643.19;4175828;28;25994;-68
2022/04/01 10:57:05;;;;;;;12.13;4.73;;;;;;;-0.75;94.05;98655.88;4190554;28;20239;-68
2022/04/01 10:59:44;;;;;;;16.13;4.60;;;;;;;-0.61;94.90;98658.28;4177061;28;20241;-67
2022/04/01 11:02:15;;;;;;;12.70;4.17;;;;;;;-0.48;95.55;98652.94;4178548;28;25764;-67
2022/04/01 11:04:44;;;;;;;19.73;4.50;;;;;;;-0.48;94.91;98647.72;4184015;28;20971;-67
2022/04/01 11:07:21;;;;;;;12.63;4.70;;;;;;;-0.45;93.13;98650.91;4184002;28;20606;-65
2022/04/01 11:09:52;;;;;;;10.03;4.00;;;;;;;-0.58;93.32;98631.09;4201261;28;20808;-67
2022/04/01 11:12:19;;;;;;;17.93;4.30;;;;;;;-0.65;93.38;98635.97;4166452;28;20248;-68
2022/04/01 11:15:10;;;;;;;11.37;3.97;;;;;;;-0.58;94.35;98652.00;4193257;28;20248;-67
2022/04/01 11:17:36;;;;;;;14.43;4.47;;;;;;;-0.66;93.70;98644.75;4202019;28;20230;-63
2022/04/01 11:20:12;;;;;;;15.23;4.70;;;;;;;-0.63;94.24;98644.53;4204145;28;20260;-64
2022/04/01 11:22:46;;;;;;;12.23;4.50;;;;;;;-0.59;93.70;98642.50;4234308;28;23597;-61
2022/04/01 11:25:39;;;;;;;19.77;3.80;;;;;;;-0.61;93.33;98663.50;4187501;28;22144;-65
2022/04/01 11:28:14;;;;;;;16.13;3.83;;;;;;;-0.61;94.08;98650.44;4199147;28;20271;-63
2022/04/01 11:30:44;;;;;;;11.13;3.83;;;;;;;-0.64;93.93;98640.22;4209220;28;25512;-65
2022/04/01 11:33:15;;;;;;;15.30;4.53;;;;;;;-0.70;94.57;98651.16;4192430;28;20249;-62
2022/04/01 11:35:49;;;;;;;16.83;5.10;;;;;;;-0.66;95.38;98657.78;4218748;28;20313;-70
2022/04/01 11:38:18;;;;;;;11.87;4.60;;;;;;;-0.75;96.11;98641.06;4183144;28;20414;-67
2022/04/01 11:40:46;;;;;;;17.53;4.83;;;;;;;-0.71;96.68;98644.25;4176858;28;21037;-66
2022/04/01 11:43:14;;;;;;;12.33;4.90;;;;;;;-0.67;96.76;98648.31;4205153;28;20241;-71
2022/04/01 11:45:47;;;;;;;16.83;4.50;;;;;;;-0.69;96.76;98642.38;4191432;28;21866;-66
2022/04/01 11:48:30;;;;;;;12.17;5.03;;;;;;;-0.72;96.38;98650.44;4194691;28;20322;-64
2022/04/01 11:51:04;;;;;;;16.77;4.70;;;;;;;-0.80;96.39;98647.56;4180908;28;22189;-67
2022/04/01 11:53:36;;;;;;;13.10;4.57;;;;;;;-0.84;96.95;98649.63;4214513;28;23233;-71
2022/04/01 11:56:08;;;;;;;17.20;4.77;;;;;;;-0.87;96.77;98642.84;4191872;28;21259;-67